sensor_id;sensor_type;location;lat;lon;timestamp;temperature;humidity
69208;SHT31;56321;47.662;8.878;2023-03-19T00:01:45;13.18;56.97
69208;SHT31;56321;47.662;8.878;2023-03-19T00:04:11;13.14;57.08
69208;SHT31;56321;47.662;8.878;2023-03-19T00:06:37;13.15;57.06
69208;SHT31;56321;47.662;8.878;2023-03-19T00:09:02;13.11;57.19
69208;SHT31;56321;47.662;8.878;2023-03-19T00:11:28;13.10;57.09
69208;SHT31;56321;47.662;8.878;2023-03-19T00:13:53;13.06;57.00
69208;SHT31;56321;47.662;8.878;2023-03-19T00:16:19;13.04;57.28
69208;SHT31;56321;47.662;8.878;2023-03-19T00:18:44;13.06;57.11
69208;SHT31;56321;47.662;8.878;2023-03-19T00:21:10;13.04;57.24
69208;SHT31;56321;47.662;8.878;2023-03-19T00:23:35;13.04;57.17
69208;SHT31;56321;47.662;8.878;2023-03-19T00:26:01;13.02;57.39
69208;SHT31;56321;47.662;8.878;2023-03-19T00:28:28;13.00;57.35
69208;SHT31;56321;47.662;8.878;2023-03-19T00:30:53;12.99;57.54
69208;SHT31;56321;47.662;8.878;2023-03-19T00:33:18;12.99;57.86
69208;SHT31;56321;47.662;8.878;2023-03-19T00:35:44;13.00;57.63
69208;SHT31;56321;47.662;8.878;2023-03-19T00:38:10;12.96;57.79
69208;SHT31;56321;47.662;8.878;2023-03-19T00:40:35;12.94;57.85
69208;SHT31;56321;47.662;8.878;2023-03-19T00:43:01;12.96;58.00
69208;SHT31;56321;47.662;8.878;2023-03-19T00:45:26;12.92;57.93
69208;SHT31;56321;47.662;8.878;2023-03-19T00:47:52;12.92;57.96
69208;SHT31;56321;47.662;8.878;2023-03-19T00:50:18;12.93;57.78
69208;SHT31;56321;47.662;8.878;2023-03-19T00:52:43;12.92;57.64
69208;SHT31;56321;47.662;8.878;2023-03-19T00:55:09;12.92;57.38
69208;SHT31;56321;47.662;8.878;2023-03-19T00:57:35;12.94;56.39
69208;SHT31;56321;47.662;8.878;2023-03-19T01:00:00;12.97;56.44
69208;SHT31;56321;47.662;8.878;2023-03-19T01:02:25;13.00;55.91
69208;SHT31;56321;47.662;8.878;2023-03-19T01:04:51;13.03;55.85
69208;SHT31;56321;47.662;8.878;2023-03-19T01:07:16;13.06;55.02
69208;SHT31;56321;47.662;8.878;2023-03-19T01:09:41;13.10;54.88
69208;SHT31;56321;47.662;8.878;2023-03-19T01:12:07;13.11;54.88
69208;SHT31;56321;47.662;8.878;2023-03-19T01:14:33;13.13;54.79
69208;SHT31;56321;47.662;8.878;2023-03-19T01:16:58;13.15;54.96
69208;SHT31;56321;47.662;8.878;2023-03-19T01:19:24;13.15;54.77
69208;SHT31;56321;47.662;8.878;2023-03-19T01:21:49;13.15;54.72
69208;SHT31;56321;47.662;8.878;2023-03-19T01:24:15;13.13;54.83
69208;SHT31;56321;47.662;8.878;2023-03-19T01:26:41;13.13;54.67
69208;SHT31;56321;47.662;8.878;2023-03-19T01:29:07;13.13;55.21
69208;SHT31;56321;47.662;8.878;2023-03-19T01:31:32;13.10;55.43
69208;SHT31;56321;47.662;8.878;2023-03-19T01:33:58;13.10;55.30
69208;SHT31;56321;47.662;8.878;2023-03-19T01:36:24;13.06;55.27
69208;SHT31;56321;47.662;8.878;2023-03-19T01:38:49;13.03;55.15
69208;SHT31;56321;47.662;8.878;2023-03-19T01:41:14;12.99;55.38
69208;SHT31;56321;47.662;8.878;2023-03-19T01:43:40;13.00;55.40
69208;SHT31;56321;47.662;8.878;2023-03-19T01:46:27;12.93;55.30
69208;SHT31;56321;47.662;8.878;2023-03-19T01:48:57;12.94;55.62
69208;SHT31;56321;47.662;8.878;2023-03-19T01:51:29;12.93;55.80
69208;SHT31;56321;47.662;8.878;2023-03-19T01:53:58;12.93;55.68
69208;SHT31;56321;47.662;8.878;2023-03-19T01:56:32;12.86;55.88
69208;SHT31;56321;47.662;8.878;2023-03-19T01:59:05;12.84;55.57
69208;SHT31;56321;47.662;8.878;2023-03-19T02:01:34;12.83;55.56
69208;SHT31;56321;47.662;8.878;2023-03-19T02:04:02;12.80;54.90
69208;SHT31;56321;47.662;8.878;2023-03-19T02:06:28;12.80;55.16
69208;SHT31;56321;47.662;8.878;2023-03-19T02:08:55;12.80;54.96
69208;SHT31;56321;47.662;8.878;2023-03-19T02:11:21;12.80;55.32
69208;SHT31;56321;47.662;8.878;2023-03-19T02:13:46;12.80;55.56
69208;SHT31;56321;47.662;8.878;2023-03-19T02:16:12;12.80;55.81
69208;SHT31;56321;47.662;8.878;2023-03-19T02:18:37;12.77;55.87
69208;SHT31;56321;47.662;8.878;2023-03-19T02:21:08;12.76;55.70
69208;SHT31;56321;47.662;8.878;2023-03-19T02:24:00;12.73;56.30
69208;SHT31;56321;47.662;8.878;2023-03-19T02:26:28;12.72;56.26
69208;SHT31;56321;47.662;8.878;2023-03-19T02:28:54;12.73;55.64
69208;SHT31;56321;47.662;8.878;2023-03-19T02:31:20;12.70;55.79
69208;SHT31;56321;47.662;8.878;2023-03-19T02:33:59;12.69;55.71
69208;SHT31;56321;47.662;8.878;2023-03-19T02:36:28;12.67;55.82
69208;SHT31;56321;47.662;8.878;2023-03-19T02:38:57;12.69;55.73
69208;SHT31;56321;47.662;8.878;2023-03-19T02:41:25;12.66;55.75
69208;SHT31;56321;47.662;8.878;2023-03-19T02:43:51;12.66;55.49
69208;SHT31;56321;47.662;8.878;2023-03-19T02:46:17;12.65;55.50
69208;SHT31;56321;47.662;8.878;2023-03-19T02:48:43;12.63;55.45
69208;SHT31;56321;47.662;8.878;2023-03-19T02:51:08;12.62;55.42
69208;SHT31;56321;47.662;8.878;2023-03-19T02:53:33;12.59;55.47
69208;SHT31;56321;47.662;8.878;2023-03-19T02:55:59;12.57;55.51
69208;SHT31;56321;47.662;8.878;2023-03-19T02:58:25;12.56;55.57
69208;SHT31;56321;47.662;8.878;2023-03-19T03:00:50;12.55;55.68
69208;SHT31;56321;47.662;8.878;2023-03-19T03:03:16;12.53;55.64
69208;SHT31;56321;47.662;8.878;2023-03-19T03:05:42;12.52;55.54
69208;SHT31;56321;47.662;8.878;2023-03-19T03:08:07;12.50;56.19
69208;SHT31;56321;47.662;8.878;2023-03-19T03:10:33;12.52;56.34
69208;SHT31;56321;47.662;8.878;2023-03-19T03:12:59;12.52;56.51
69208;SHT31;56321;47.662;8.878;2023-03-19T03:15:25;12.50;56.17
69208;SHT31;56321;47.662;8.878;2023-03-19T03:17:50;12.50;56.15
69208;SHT31;56321;47.662;8.878;2023-03-19T03:20:16;12.50;56.28
69208;SHT31;56321;47.662;8.878;2023-03-19T03:22:42;12.49;56.42
69208;SHT31;56321;47.662;8.878;2023-03-19T03:25:09;12.49;56.65
69208;SHT31;56321;47.662;8.878;2023-03-19T03:27:35;12.49;56.63
69208;SHT31;56321;47.662;8.878;2023-03-19T03:30:06;12.45;56.75
69208;SHT31;56321;47.662;8.878;2023-03-19T03:32:36;12.45;56.74
69208;SHT31;56321;47.662;8.878;2023-03-19T03:35:03;12.44;56.80
69208;SHT31;56321;47.662;8.878;2023-03-19T03:37:29;12.44;56.90
69208;SHT31;56321;47.662;8.878;2023-03-19T03:39:55;12.39;56.83
69208;SHT31;56321;47.662;8.878;2023-03-19T03:42:20;12.38;57.16
69208;SHT31;56321;47.662;8.878;2023-03-19T03:44:45;12.39;56.55
69208;SHT31;56321;47.662;8.878;2023-03-19T03:47:11;12.38;56.85
69208;SHT31;56321;47.662;8.878;2023-03-19T03:49:37;12.38;57.30
69208;SHT31;56321;47.662;8.878;2023-03-19T03:52:02;12.38;57.41
69208;SHT31;56321;47.662;8.878;2023-03-19T03:54:28;12.35;57.16
69208;SHT31;56321;47.662;8.878;2023-03-19T03:56:53;12.36;56.57
69208;SHT31;56321;47.662;8.878;2023-03-19T03:59:18;12.35;57.64
69208;SHT31;56321;47.662;8.878;2023-03-19T04:01:43;12.35;57.94
69208;SHT31;56321;47.662;8.878;2023-03-19T04:04:09;12.32;58.45
69208;SHT31;56321;47.662;8.878;2023-03-19T04:06:34;12.34;58.52
69208;SHT31;56321;47.662;8.878;2023-03-19T04:09:00;12.36;58.88
69208;SHT31;56321;47.662;8.878;2023-03-19T04:11:26;12.36;58.62
69208;SHT31;56321;47.662;8.878;2023-03-19T04:13:54;12.35;58.53
69208;SHT31;56321;47.662;8.878;2023-03-19T04:16:20;12.34;58.45
69208;SHT31;56321;47.662;8.878;2023-03-19T04:18:46;12.36;58.32
69208;SHT31;56321;47.662;8.878;2023-03-19T04:21:11;12.32;57.42
69208;SHT31;56321;47.662;8.878;2023-03-19T04:23:37;12.27;57.16
69208;SHT31;56321;47.662;8.878;2023-03-19T04:26:04;12.28;58.01
69208;SHT31;56321;47.662;8.878;2023-03-19T04:28:31;12.29;58.39
69208;SHT31;56321;47.662;8.878;2023-03-19T04:30:59;12.29;58.89
69208;SHT31;56321;47.662;8.878;2023-03-19T04:33:25;12.32;59.14
69208;SHT31;56321;47.662;8.878;2023-03-19T04:35:50;12.34;58.39
69208;SHT31;56321;47.662;8.878;2023-03-19T04:38:15;12.35;58.52
69208;SHT31;56321;47.662;8.878;2023-03-19T04:40:41;12.36;59.05
69208;SHT31;56321;47.662;8.878;2023-03-19T04:43:07;12.34;58.48
69208;SHT31;56321;47.662;8.878;2023-03-19T04:45:33;12.36;58.64
69208;SHT31;56321;47.662;8.878;2023-03-19T04:47:58;12.34;58.06
69208;SHT31;56321;47.662;8.878;2023-03-19T04:50:23;12.32;59.13
69208;SHT31;56321;47.662;8.878;2023-03-19T04:52:49;12.32;59.76
69208;SHT31;56321;47.662;8.878;2023-03-19T04:55:14;12.31;59.76
69208;SHT31;56321;47.662;8.878;2023-03-19T04:57:40;12.28;59.60
69208;SHT31;56321;47.662;8.878;2023-03-19T05:00:05;12.25;59.07
69208;SHT31;56321;47.662;8.878;2023-03-19T05:02:31;12.22;60.10
69208;SHT31;56321;47.662;8.878;2023-03-19T05:04:56;12.22;60.28
69208;SHT31;56321;47.662;8.878;2023-03-19T05:07:22;12.22;60.40
69208;SHT31;56321;47.662;8.878;2023-03-19T05:09:47;12.21;60.68
69208;SHT31;56321;47.662;8.878;2023-03-19T05:12:13;12.22;60.69
69208;SHT31;56321;47.662;8.878;2023-03-19T05:14:38;12.20;60.51
69208;SHT31;56321;47.662;8.878;2023-03-19T05:17:04;12.18;60.00
69208;SHT31;56321;47.662;8.878;2023-03-19T05:19:29;12.22;59.53
69208;SHT31;56321;47.662;8.878;2023-03-19T05:21:54;12.22;60.35
69208;SHT31;56321;47.662;8.878;2023-03-19T05:24:22;12.24;60.35
69208;SHT31;56321;47.662;8.878;2023-03-19T05:26:47;12.25;60.18
69208;SHT31;56321;47.662;8.878;2023-03-19T05:29:12;12.28;59.49
69208;SHT31;56321;47.662;8.878;2023-03-19T05:31:39;12.28;59.81
69208;SHT31;56321;47.662;8.878;2023-03-19T05:34:05;12.27;59.94
69208;SHT31;56321;47.662;8.878;2023-03-19T05:36:30;12.28;60.20
69208;SHT31;56321;47.662;8.878;2023-03-19T05:38:55;12.28;60.35
69208;SHT31;56321;47.662;8.878;2023-03-19T05:41:20;12.28;60.56
69208;SHT31;56321;47.662;8.878;2023-03-19T05:43:46;12.27;60.41
69208;SHT31;56321;47.662;8.878;2023-03-19T05:46:12;12.25;59.99
69208;SHT31;56321;47.662;8.878;2023-03-19T05:48:37;12.27;60.02
69208;SHT31;56321;47.662;8.878;2023-03-19T05:51:03;12.22;60.68
69208;SHT31;56321;47.662;8.878;2023-03-19T05:53:28;12.21;60.29
69208;SHT31;56321;47.662;8.878;2023-03-19T05:55:53;12.21;60.51
69208;SHT31;56321;47.662;8.878;2023-03-19T05:58:19;12.21;60.61
69208;SHT31;56321;47.662;8.878;2023-03-19T06:00:44;12.20;60.07
69208;SHT31;56321;47.662;8.878;2023-03-19T06:03:10;12.18;60.24
69208;SHT31;56321;47.662;8.878;2023-03-19T06:05:35;12.16;60.56
69208;SHT31;56321;47.662;8.878;2023-03-19T06:08:01;12.14;60.68
69208;SHT31;56321;47.662;8.878;2023-03-19T06:10:26;12.11;61.19
69208;SHT31;56321;47.662;8.878;2023-03-19T06:12:52;12.10;61.43
69208;SHT31;56321;47.662;8.878;2023-03-19T06:15:17;12.08;61.72
69208;SHT31;56321;47.662;8.878;2023-03-19T06:17:42;12.05;62.11
69208;SHT31;56321;47.662;8.878;2023-03-19T06:20:09;12.04;62.45
69208;SHT31;56321;47.662;8.878;2023-03-19T06:22:35;12.04;62.67
69208;SHT31;56321;47.662;8.878;2023-03-19T06:25:01;12.02;63.19
69208;SHT31;56321;47.662;8.878;2023-03-19T06:27:26;12.01;63.12
69208;SHT31;56321;47.662;8.878;2023-03-19T06:29:52;11.97;63.35
69208;SHT31;56321;47.662;8.878;2023-03-19T06:32:17;12.00;63.69
69208;SHT31;56321;47.662;8.878;2023-03-19T06:34:42;11.95;63.66
69208;SHT31;56321;47.662;8.878;2023-03-19T06:37:08;11.97;62.49
69208;SHT31;56321;47.662;8.878;2023-03-19T06:39:33;11.94;62.63
69208;SHT31;56321;47.662;8.878;2023-03-19T06:41:59;11.95;62.34
69208;SHT31;56321;47.662;8.878;2023-03-19T06:44:24;11.97;62.97
69208;SHT31;56321;47.662;8.878;2023-03-19T06:46:49;11.98;63.06
69208;SHT31;56321;47.662;8.878;2023-03-19T06:49:15;12.00;63.12
69208;SHT31;56321;47.662;8.878;2023-03-19T06:51:41;12.01;62.76
69208;SHT31;56321;47.662;8.878;2023-03-19T06:54:06;12.07;62.97
69208;SHT31;56321;47.662;8.878;2023-03-19T06:56:31;12.08;63.34
69208;SHT31;56321;47.662;8.878;2023-03-19T06:58:57;12.10;63.22
69208;SHT31;56321;47.662;8.878;2023-03-19T07:01:22;12.11;62.71
69208;SHT31;56321;47.662;8.878;2023-03-19T07:03:48;12.08;62.84
69208;SHT31;56321;47.662;8.878;2023-03-19T07:06:13;12.08;62.67
69208;SHT31;56321;47.662;8.878;2023-03-19T07:08:38;12.01;62.76
69208;SHT31;56321;47.662;8.878;2023-03-19T07:11:06;12.05;63.76
69208;SHT31;56321;47.662;8.878;2023-03-19T07:13:32;12.13;64.11
69208;SHT31;56321;47.662;8.878;2023-03-19T07:15:58;12.22;64.30
69208;SHT31;56321;47.662;8.878;2023-03-19T07:18:23;12.29;64.63
69208;SHT31;56321;47.662;8.878;2023-03-19T07:20:49;12.34;63.41
69208;SHT31;56321;47.662;8.878;2023-03-19T07:23:14;12.44;62.81
69208;SHT31;56321;47.662;8.878;2023-03-19T07:25:40;12.50;62.08
69208;SHT31;56321;47.662;8.878;2023-03-19T07:28:05;12.63;62.30
69208;SHT31;56321;47.662;8.878;2023-03-19T07:30:31;12.76;62.87
69208;SHT31;56321;47.662;8.878;2023-03-19T07:32:57;12.90;61.90
69208;SHT31;56321;47.662;8.878;2023-03-19T07:35:22;13.00;61.27
69208;SHT31;56321;47.662;8.878;2023-03-19T07:37:47;13.11;61.32
69208;SHT31;56321;47.662;8.878;2023-03-19T07:40:13;13.17;61.13
69208;SHT31;56321;47.662;8.878;2023-03-19T07:42:38;13.23;61.23
69208;SHT31;56321;47.662;8.878;2023-03-19T07:45:04;13.23;61.14
69208;SHT31;56321;47.662;8.878;2023-03-19T07:47:30;13.30;61.46
69208;SHT31;56321;47.662;8.878;2023-03-19T07:49:56;13.32;60.45
69208;SHT31;56321;47.662;8.878;2023-03-19T07:52:23;13.38;60.95
69208;SHT31;56321;47.662;8.878;2023-03-19T07:54:48;13.42;60.32
69208;SHT31;56321;47.662;8.878;2023-03-19T07:57:14;13.54;59.93
69208;SHT31;56321;47.662;8.878;2023-03-19T07:59:40;13.62;60.44
69208;SHT31;56321;47.662;8.878;2023-03-19T08:02:07;13.73;60.51
69208;SHT31;56321;47.662;8.878;2023-03-19T08:04:34;13.83;61.00
69208;SHT31;56321;47.662;8.878;2023-03-19T08:06:59;13.99;59.61
69208;SHT31;56321;47.662;8.878;2023-03-19T08:09:25;14.20;58.70
69208;SHT31;56321;47.662;8.878;2023-03-19T08:11:50;14.44;58.44
69208;SHT31;56321;47.662;8.878;2023-03-19T08:14:15;14.71;56.36
69208;SHT31;56321;47.662;8.878;2023-03-19T08:16:46;15.02;55.03
69208;SHT31;56321;47.662;8.878;2023-03-19T08:19:11;15.30;54.51
69208;SHT31;56321;47.662;8.878;2023-03-19T08:21:37;15.53;53.38
69208;SHT31;56321;47.662;8.878;2023-03-19T08:24:03;15.65;52.96
69208;SHT31;56321;47.662;8.878;2023-03-19T08:26:28;15.72;52.13
69208;SHT31;56321;47.662;8.878;2023-03-19T08:28:53;15.91;51.91
69208;SHT31;56321;47.662;8.878;2023-03-19T08:31:19;16.16;50.87
69208;SHT31;56321;47.662;8.878;2023-03-19T08:33:44;16.39;50.72
69208;SHT31;56321;47.662;8.878;2023-03-19T08:36:12;16.61;49.81
69208;SHT31;56321;47.662;8.878;2023-03-19T08:38:38;16.66;49.44
69208;SHT31;56321;47.662;8.878;2023-03-19T08:41:04;16.64;49.56
69208;SHT31;56321;47.662;8.878;2023-03-19T08:43:31;16.53;49.07
69208;SHT31;56321;47.662;8.878;2023-03-19T08:45:57;16.37;49.43
69208;SHT31;56321;47.662;8.878;2023-03-19T08:48:23;16.23;50.57
69208;SHT31;56321;47.662;8.878;2023-03-19T08:50:53;16.09;50.75
69208;SHT31;56321;47.662;8.878;2023-03-19T08:53:20;15.98;50.89
69208;SHT31;56321;47.662;8.878;2023-03-19T08:55:51;15.89;50.54
69208;SHT31;56321;47.662;8.878;2023-03-19T08:58:16;15.79;50.76
69208;SHT31;56321;47.662;8.878;2023-03-19T09:00:42;15.77;50.42
69208;SHT31;56321;47.662;8.878;2023-03-19T09:03:07;15.77;50.86
69208;SHT31;56321;47.662;8.878;2023-03-19T09:05:32;15.79;50.97
69208;SHT31;56321;47.662;8.878;2023-03-19T09:07:57;15.84;50.77
69208;SHT31;56321;47.662;8.878;2023-03-19T09:10:23;15.89;50.90
69208;SHT31;56321;47.662;8.878;2023-03-19T09:12:48;15.99;50.27
69208;SHT31;56321;47.662;8.878;2023-03-19T09:15:13;16.08;49.87
69208;SHT31;56321;47.662;8.878;2023-03-19T09:17:39;16.18;49.97
69208;SHT31;56321;47.662;8.878;2023-03-19T09:20:05;16.22;49.26
69208;SHT31;56321;47.662;8.878;2023-03-19T09:22:31;16.22;49.38
69208;SHT31;56321;47.662;8.878;2023-03-19T09:24:56;16.22;49.31
69208;SHT31;56321;47.662;8.878;2023-03-19T09:27:22;16.26;49.24
69208;SHT31;56321;47.662;8.878;2023-03-19T09:29:47;16.25;49.60
69208;SHT31;56321;47.662;8.878;2023-03-19T09:32:12;16.52;49.28
69208;SHT31;56321;47.662;8.878;2023-03-19T09:34:38;17.40;49.31
69208;SHT31;56321;47.662;8.878;2023-03-19T09:37:04;18.99;46.69
69208;SHT31;56321;47.662;8.878;2023-03-19T09:39:30;20.79;44.29
69208;SHT31;56321;47.662;8.878;2023-03-19T09:44:36;23.53;37.64
69208;SHT31;56321;47.662;8.878;2023-03-19T09:47:28;24.22;35.17
69208;SHT31;56321;47.662;8.878;2023-03-19T09:49:58;25.21;34.97
69208;SHT31;56321;47.662;8.878;2023-03-19T09:52:29;26.34;34.09
69208;SHT31;56321;47.662;8.878;2023-03-19T09:54:59;27.40;32.36
69208;SHT31;56321;47.662;8.878;2023-03-19T09:57:25;28.06;30.82
69208;SHT31;56321;47.662;8.878;2023-03-19T09:59:54;28.36;29.41
69208;SHT31;56321;47.662;8.878;2023-03-19T10:10:31;24.94;30.52
69208;SHT31;56321;47.662;8.878;2023-03-19T10:13:15;24.11;31.84
69208;SHT31;56321;47.662;8.878;2023-03-19T10:15:43;23.49;32.80
69208;SHT31;56321;47.662;8.878;2023-03-19T10:18:18;23.00;33.98
69208;SHT31;56321;47.662;8.878;2023-03-19T10:26:04;22.04;35.49
69208;SHT31;56321;47.662;8.878;2023-03-19T10:28:30;22.01;35.05
69208;SHT31;56321;47.662;8.878;2023-03-19T10:33:25;22.26;35.15
69208;SHT31;56321;47.662;8.878;2023-03-19T10:36:00;22.39;35.04
69208;SHT31;56321;47.662;8.878;2023-03-19T10:38:27;22.42;34.80
69208;SHT31;56321;47.662;8.878;2023-03-19T10:41:04;22.32;35.51
69208;SHT31;56321;47.662;8.878;2023-03-19T10:43:33;22.28;35.85
69208;SHT31;56321;47.662;8.878;2023-03-19T10:45:59;22.33;35.33
69208;SHT31;56321;47.662;8.878;2023-03-19T10:48:25;22.54;35.04
69208;SHT31;56321;47.662;8.878;2023-03-19T10:50:57;23.11;34.66
69208;SHT31;56321;47.662;8.878;2023-03-19T10:53:44;23.84;33.45
69208;SHT31;56321;47.662;8.878;2023-03-19T10:56:22;25.04;33.73
69208;SHT31;56321;47.662;8.878;2023-03-19T11:02:02;28.29;29.23
69208;SHT31;56321;47.662;8.878;2023-03-19T11:04:28;29.48;28.80
69208;SHT31;56321;47.662;8.878;2023-03-19T11:07:14;30.33;25.62
69208;SHT31;56321;47.662;8.878;2023-03-19T11:09:47;31.06;26.18
69208;SHT31;56321;47.662;8.878;2023-03-19T11:14:50;31.68;23.89
69208;SHT31;56321;47.662;8.878;2023-03-19T11:17:20;31.99;25.02
69208;SHT31;56321;47.662;8.878;2023-03-19T11:19:54;32.06;22.30
69208;SHT31;56321;47.662;8.878;2023-03-19T11:22:26;32.11;22.75
69208;SHT31;56321;47.662;8.878;2023-03-19T11:24:59;32.02;22.59
69208;SHT31;56321;47.662;8.878;2023-03-19T11:27:33;31.73;23.30
69208;SHT31;56321;47.662;8.878;2023-03-19T11:30:00;30.95;23.94
69208;SHT31;56321;47.662;8.878;2023-03-19T11:35:47;29.65;24.26
69208;SHT31;56321;47.662;8.878;2023-03-19T11:47:10;30.88;23.69
69208;SHT31;56321;47.662;8.878;2023-03-19T11:50:02;31.06;22.99
69208;SHT31;56321;47.662;8.878;2023-03-19T11:55:35;30.90;23.04
69208;SHT31;56321;47.662;8.878;2023-03-19T11:58:35;30.92;23.58
69208;SHT31;56321;47.662;8.878;2023-03-19T12:01:17;30.88;22.93
69208;SHT31;56321;47.662;8.878;2023-03-19T12:04:55;30.10;23.69
69208;SHT31;56321;47.662;8.878;2023-03-19T12:07:22;29.38;24.76
69208;SHT31;56321;47.662;8.878;2023-03-19T12:12:37;27.20;26.36
69208;SHT31;56321;47.662;8.878;2023-03-19T12:15:26;26.43;27.51
69208;SHT31;56321;47.662;8.878;2023-03-19T12:20:50;25.72;28.15
69208;SHT31;56321;47.662;8.878;2023-03-19T12:26:17;25.13;28.52
69208;SHT31;56321;47.662;8.878;2023-03-19T12:28:48;24.66;28.88
69208;SHT31;56321;47.662;8.878;2023-03-19T12:34:35;23.52;30.63
69208;SHT31;56321;47.662;8.878;2023-03-19T12:40:12;22.94;31.43
69208;SHT31;56321;47.662;8.878;2023-03-19T12:42:41;22.78;31.98
69208;SHT31;56321;47.662;8.878;2023-03-19T12:45:18;22.59;32.22
69208;SHT31;56321;47.662;8.878;2023-03-19T12:47:47;22.32;32.04
69208;SHT31;56321;47.662;8.878;2023-03-19T12:50:15;22.05;32.31
69208;SHT31;56321;47.662;8.878;2023-03-19T12:52:50;21.70;33.07
69208;SHT31;56321;47.662;8.878;2023-03-19T12:58:30;21.22;34.22
69208;SHT31;56321;47.662;8.878;2023-03-19T13:00:58;21.06;34.23
69208;SHT31;56321;47.662;8.878;2023-03-19T13:06:25;20.82;35.03
69208;SHT31;56321;47.662;8.878;2023-03-19T13:11:38;20.68;34.49
69208;SHT31;56321;47.662;8.878;2023-03-19T13:14:18;20.61;35.13
69208;SHT31;56321;47.662;8.878;2023-03-19T13:16:51;20.54;35.12
69208;SHT31;56321;47.662;8.878;2023-03-19T13:19:27;20.52;35.44
69208;SHT31;56321;47.662;8.878;2023-03-19T13:21:57;20.54;35.42
69208;SHT31;56321;47.662;8.878;2023-03-19T13:24:29;20.54;34.97
69208;SHT31;56321;47.662;8.878;2023-03-19T13:26:57;20.49;35.02
69208;SHT31;56321;47.662;8.878;2023-03-19T13:29:29;20.45;35.52
69208;SHT31;56321;47.662;8.878;2023-03-19T13:32:20;20.44;36.40
69208;SHT31;56321;47.662;8.878;2023-03-19T13:34:45;20.37;35.47
69208;SHT31;56321;47.662;8.878;2023-03-19T13:37:16;20.27;35.92
69208;SHT31;56321;47.662;8.878;2023-03-19T13:39:42;20.14;35.70
69208;SHT31;56321;47.662;8.878;2023-03-19T13:42:34;20.01;36.12
69208;SHT31;56321;47.662;8.878;2023-03-19T13:45:35;19.79;36.39
69208;SHT31;56321;47.662;8.878;2023-03-19T13:50:53;19.69;37.34
69208;SHT31;56321;47.662;8.878;2023-03-19T13:53:31;19.69;37.69
69208;SHT31;56321;47.662;8.878;2023-03-19T13:55:59;19.72;38.08
69208;SHT31;56321;47.662;8.878;2023-03-19T13:58:26;19.72;37.70
69208;SHT31;56321;47.662;8.878;2023-03-19T14:04:17;19.70;37.89
69208;SHT31;56321;47.662;8.878;2023-03-19T14:06:49;19.78;37.76
69208;SHT31;56321;47.662;8.878;2023-03-19T14:09:40;19.79;37.66
69208;SHT31;56321;47.662;8.878;2023-03-19T14:14:41;19.83;38.29
69208;SHT31;56321;47.662;8.878;2023-03-19T14:17:15;19.79;38.15
69208;SHT31;56321;47.662;8.878;2023-03-19T14:19:43;19.75;37.82
69208;SHT31;56321;47.662;8.878;2023-03-19T14:22:28;19.63;37.72
69208;SHT31;56321;47.662;8.878;2023-03-19T14:25:16;19.51;38.70
69208;SHT31;56321;47.662;8.878;2023-03-19T14:27:48;19.35;38.43
69208;SHT31;56321;47.662;8.878;2023-03-19T14:30:26;19.15;38.49
69208;SHT31;56321;47.662;8.878;2023-03-19T14:32:55;18.96;38.36
69208;SHT31;56321;47.662;8.878;2023-03-19T14:35:24;18.73;38.87
69208;SHT31;56321;47.662;8.878;2023-03-19T14:37:51;18.59;38.99
69208;SHT31;56321;47.662;8.878;2023-03-19T14:40:23;18.42;39.10
69208;SHT31;56321;47.662;8.878;2023-03-19T14:51:30;17.97;39.89
69208;SHT31;56321;47.662;8.878;2023-03-19T14:54:12;17.91;40.19
69208;SHT31;56321;47.662;8.878;2023-03-19T14:56:42;17.86;39.70
69208;SHT31;56321;47.662;8.878;2023-03-19T14:59:08;17.81;39.79
69208;SHT31;56321;47.662;8.878;2023-03-19T15:01:39;17.74;39.56
69208;SHT31;56321;47.662;8.878;2023-03-19T15:04:08;17.65;39.61
69208;SHT31;56321;47.662;8.878;2023-03-19T15:06:46;17.52;39.54
69208;SHT31;56321;47.662;8.878;2023-03-19T15:09:26;17.40;40.29
69208;SHT31;56321;47.662;8.878;2023-03-19T15:12:25;17.33;40.44
69208;SHT31;56321;47.662;8.878;2023-03-19T15:16:17;17.25;40.97
69208;SHT31;56321;47.662;8.878;2023-03-19T15:18:10;17.19;41.04
69208;SHT31;56321;47.662;8.878;2023-03-19T15:20:46;17.15;41.81
69208;SHT31;56321;47.662;8.878;2023-03-19T15:23:17;17.08;42.03
69208;SHT31;56321;47.662;8.878;2023-03-19T15:28:46;16.84;43.03
69208;SHT31;56321;47.662;8.878;2023-03-19T15:31:13;16.75;43.55
69208;SHT31;56321;47.662;8.878;2023-03-19T15:33:39;16.70;43.71
69208;SHT31;56321;47.662;8.878;2023-03-19T15:36:10;16.63;44.10
69208;SHT31;56321;47.662;8.878;2023-03-19T15:38:45;16.50;44.57
69208;SHT31;56321;47.662;8.878;2023-03-19T15:41:11;16.47;44.71
69208;SHT31;56321;47.662;8.878;2023-03-19T15:43:39;16.43;44.83
69208;SHT31;56321;47.662;8.878;2023-03-19T15:46:07;16.40;45.21
69208;SHT31;56321;47.662;8.878;2023-03-19T15:49:02;16.26;45.73
69208;SHT31;56321;47.662;8.878;2023-03-19T15:51:30;16.20;45.59
69208;SHT31;56321;47.662;8.878;2023-03-19T15:53:56;16.06;45.91
69208;SHT31;56321;47.662;8.878;2023-03-19T15:56:23;15.97;46.43
69208;SHT31;56321;47.662;8.878;2023-03-19T15:58:50;15.92;46.91
69208;SHT31;56321;47.662;8.878;2023-03-19T16:01:17;15.87;47.06
69208;SHT31;56321;47.662;8.878;2023-03-19T16:03:59;15.78;47.77
69208;SHT31;56321;47.662;8.878;2023-03-19T16:06:26;15.71;47.66
69208;SHT31;56321;47.662;8.878;2023-03-19T16:08:54;15.60;48.21
69208;SHT31;56321;47.662;8.878;2023-03-19T16:11:29;15.53;48.52
69208;SHT31;56321;47.662;8.878;2023-03-19T16:14:08;15.46;48.08
69208;SHT31;56321;47.662;8.878;2023-03-19T16:16:34;15.39;48.13
69208;SHT31;56321;47.662;8.878;2023-03-19T16:18:59;15.30;48.22
69208;SHT31;56321;47.662;8.878;2023-03-19T16:26:42;15.12;48.86
69208;SHT31;56321;47.662;8.878;2023-03-19T16:29:21;15.00;49.79
69208;SHT31;56321;47.662;8.878;2023-03-19T16:31:49;14.99;49.66
69208;SHT31;56321;47.662;8.878;2023-03-19T16:36:50;14.95;49.93
69208;SHT31;56321;47.662;8.878;2023-03-19T16:39:33;14.89;50.68
69208;SHT31;56321;47.662;8.878;2023-03-19T16:44:41;14.76;50.73
69208;SHT31;56321;47.662;8.878;2023-03-19T16:47:12;14.74;50.98
69208;SHT31;56321;47.662;8.878;2023-03-19T16:49:38;14.69;50.85
69208;SHT31;56321;47.662;8.878;2023-03-19T16:52:05;14.61;51.21
69208;SHT31;56321;47.662;8.878;2023-03-19T16:54:30;14.58;51.42
69208;SHT31;56321;47.662;8.878;2023-03-19T16:56:56;14.52;51.59
69208;SHT31;56321;47.662;8.878;2023-03-19T16:59:28;14.51;52.05
69208;SHT31;56321;47.662;8.878;2023-03-19T17:01:55;14.49;52.07
69208;SHT31;56321;47.662;8.878;2023-03-19T17:04:21;14.49;52.17
69208;SHT31;56321;47.662;8.878;2023-03-19T17:06:48;14.49;52.27
69208;SHT31;56321;47.662;8.878;2023-03-19T17:09:13;14.42;52.31
69208;SHT31;56321;47.662;8.878;2023-03-19T17:11:41;14.38;52.31
69208;SHT31;56321;47.662;8.878;2023-03-19T17:14:12;14.37;52.57